sensor_id;sensor_type;location;lat;lon;timestamp;P1;durP1;ratioP1;P2;durP2;ratioP2
76123;SDS011;65173;48.066;20.976;2023-04-24T00:01:26;7.50;;;3.92;;
76123;SDS011;65173;48.066;20.976;2023-04-24T00:04:31;5.03;;;4.37;;
76123;SDS011;65173;48.066;20.976;2023-04-24T00:07:34;5.25;;;2.95;;
76123;SDS011;65173;48.066;20.976;2023-04-24T00:10:38;6.10;;;2.90;;
76123;SDS011;65173;48.066;20.976;2023-04-24T00:13:40;8.00;;;3.28;;
76123;SDS011;65173;48.066;20.976;2023-04-24T00:16:43;6.63;;;3.78;;
76123;SDS011;65173;48.066;20.976;2023-04-24T00:19:46;7.72;;;4.43;;
76123;SDS011;65173;48.066;20.976;2023-04-24T00:22:50;9.52;;;5.30;;
76123;SDS011;65173;48.066;20.976;2023-04-24T00:25:52;8.50;;;3.73;;
76123;SDS011;65173;48.066;20.976;2023-04-24T00:28:55;10.75;;;5.53;;
76123;SDS011;65173;48.066;20.976;2023-04-24T00:31:58;9.85;;;4.13;;
76123;SDS011;65173;48.066;20.976;2023-04-24T00:35:01;9.13;;;5.57;;
76123;SDS011;65173;48.066;20.976;2023-04-24T00:38:04;10.25;;;4.72;;
76123;SDS011;65173;48.066;20.976;2023-04-24T00:41:07;5.68;;;4.38;;
76123;SDS011;65173;48.066;20.976;2023-04-24T00:44:10;7.38;;;4.55;;
76123;SDS011;65173;48.066;20.976;2023-04-24T00:47:13;5.70;;;3.80;;
76123;SDS011;65173;48.066;20.976;2023-04-24T00:50:23;9.18;;;5.20;;
76123;SDS011;65173;48.066;20.976;2023-04-24T00:53:26;6.82;;;3.58;;
76123;SDS011;65173;48.066;20.976;2023-04-24T00:56:29;7.97;;;3.63;;
76123;SDS011;65173;48.066;20.976;2023-04-24T00:59:32;6.10;;;3.65;;
76123;SDS011;65173;48.066;20.976;2023-04-24T01:02:35;4.85;;;2.53;;
76123;SDS011;65173;48.066;20.976;2023-04-24T01:05:42;5.07;;;3.63;;
76123;SDS011;65173;48.066;20.976;2023-04-24T01:08:45;8.27;;;4.32;;
76123;SDS011;65173;48.066;20.976;2023-04-24T01:11:50;10.93;;;3.90;;
76123;SDS011;65173;48.066;20.976;2023-04-24T01:14:53;7.47;;;5.18;;
76123;SDS011;65173;48.066;20.976;2023-04-24T01:17:57;6.65;;;4.10;;
76123;SDS011;65173;48.066;20.976;2023-04-24T01:20:59;5.43;;;3.67;;
76123;SDS011;65173;48.066;20.976;2023-04-24T01:24:06;4.72;;;3.45;;
76123;SDS011;65173;48.066;20.976;2023-04-24T01:27:09;4.43;;;2.70;;
76123;SDS011;65173;48.066;20.976;2023-04-24T01:30:13;6.53;;;3.85;;
76123;SDS011;65173;48.066;20.976;2023-04-24T01:33:16;6.32;;;3.88;;
76123;SDS011;65173;48.066;20.976;2023-04-24T01:36:19;4.93;;;3.80;;
76123;SDS011;65173;48.066;20.976;2023-04-24T01:39:25;6.13;;;3.05;;
76123;SDS011;65173;48.066;20.976;2023-04-24T01:42:30;8.55;;;3.75;;
76123;SDS011;65173;48.066;20.976;2023-04-24T01:45:33;4.30;;;2.80;;
76123;SDS011;65173;48.066;20.976;2023-04-24T01:48:38;4.28;;;2.67;;
76123;SDS011;65173;48.066;20.976;2023-04-24T01:51:42;7.80;;;3.80;;
76123;SDS011;65173;48.066;20.976;2023-04-24T01:54:45;6.93;;;3.03;;
76123;SDS011;65173;48.066;20.976;2023-04-24T01:57:48;7.07;;;2.83;;
76123;SDS011;65173;48.066;20.976;2023-04-24T02:00:51;4.75;;;3.03;;
76123;SDS011;65173;48.066;20.976;2023-04-24T02:03:55;5.78;;;3.00;;
76123;SDS011;65173;48.066;20.976;2023-04-24T02:06:58;3.27;;;2.33;;
76123;SDS011;65173;48.066;20.976;2023-04-24T02:10:01;3.85;;;2.33;;
76123;SDS011;65173;48.066;20.976;2023-04-24T02:13:04;3.38;;;2.35;;
76123;SDS011;65173;48.066;20.976;2023-04-24T02:16:06;5.18;;;2.72;;
76123;SDS011;65173;48.066;20.976;2023-04-24T02:19:10;3.38;;;1.58;;
76123;SDS011;65173;48.066;20.976;2023-04-24T02:22:12;2.97;;;2.42;;
76123;SDS011;65173;48.066;20.976;2023-04-24T02:25:15;4.25;;;2.72;;
76123;SDS011;65173;48.066;20.976;2023-04-24T02:28:18;4.40;;;2.90;;
76123;SDS011;65173;48.066;20.976;2023-04-24T02:31:22;3.28;;;2.63;;
76123;SDS011;65173;48.066;20.976;2023-04-24T02:34:24;4.35;;;2.47;;
76123;SDS011;65173;48.066;20.976;2023-04-24T02:37:27;6.50;;;2.67;;
76123;SDS011;65173;48.066;20.976;2023-04-24T02:40:30;7.40;;;3.35;;
76123;SDS011;65173;48.066;20.976;2023-04-24T02:43:34;5.95;;;3.05;;
76123;SDS011;65173;48.066;20.976;2023-04-24T02:46:37;18.33;;;3.67;;
76123;SDS011;65173;48.066;20.976;2023-04-24T02:49:40;7.53;;;3.80;;
76123;SDS011;65173;48.066;20.976;2023-04-24T02:52:43;5.68;;;2.85;;
76123;SDS011;65173;48.066;20.976;2023-04-24T02:55:46;4.32;;;3.13;;
76123;SDS011;65173;48.066;20.976;2023-04-24T02:58:49;8.73;;;3.87;;
76123;SDS011;65173;48.066;20.976;2023-04-24T03:01:52;3.42;;;2.50;;
76123;SDS011;65173;48.066;20.976;2023-04-24T03:04:54;8.45;;;4.28;;
76123;SDS011;65173;48.066;20.976;2023-04-24T03:07:57;8.57;;;3.77;;
76123;SDS011;65173;48.066;20.976;2023-04-24T03:11:00;6.97;;;3.58;;
76123;SDS011;65173;48.066;20.976;2023-04-24T03:14:03;7.50;;;3.63;;
76123;SDS011;65173;48.066;20.976;2023-04-24T03:17:05;5.18;;;2.65;;
76123;SDS011;65173;48.066;20.976;2023-04-24T03:20:09;3.53;;;2.35;;
76123;SDS011;65173;48.066;20.976;2023-04-24T03:23:12;5.53;;;3.38;;
76123;SDS011;65173;48.066;20.976;2023-04-24T03:26:15;4.20;;;2.13;;
76123;SDS011;65173;48.066;20.976;2023-04-24T03:29:29;2.50;;;1.80;;
76123;SDS011;65173;48.066;20.976;2023-04-24T03:32:32;18.10;;;3.45;;
76123;SDS011;65173;48.066;20.976;2023-04-24T03:35:36;5.18;;;3.35;;
76123;SDS011;65173;48.066;20.976;2023-04-24T03:38:43;3.50;;;2.30;;
76123;SDS011;65173;48.066;20.976;2023-04-24T03:42:16;6.43;;;3.83;;
76123;SDS011;65173;48.066;20.976;2023-04-24T03:45:26;6.30;;;3.00;;
76123;SDS011;65173;48.066;20.976;2023-04-24T03:48:29;4.45;;;3.63;;
76123;SDS011;65173;48.066;20.976;2023-04-24T03:51:32;3.53;;;2.30;;
76123;SDS011;65173;48.066;20.976;2023-04-24T03:54:44;5.40;;;2.90;;
76123;SDS011;65173;48.066;20.976;2023-04-24T03:57:47;6.05;;;3.33;;
76123;SDS011;65173;48.066;20.976;2023-04-24T04:00:56;9.17;;;3.10;;
76123;SDS011;65173;48.066;20.976;2023-04-24T04:04:18;3.03;;;1.88;;
76123;SDS011;65173;48.066;20.976;2023-04-24T04:07:21;3.53;;;1.90;;
76123;SDS011;65173;48.066;20.976;2023-04-24T04:10:24;3.80;;;2.17;;
76123;SDS011;65173;48.066;20.976;2023-04-24T04:13:27;3.55;;;2.58;;
76123;SDS011;65173;48.066;20.976;2023-04-24T04:16:29;4.20;;;2.10;;
76123;SDS011;65173;48.066;20.976;2023-04-24T04:19:37;3.35;;;2.40;;
76123;SDS011;65173;48.066;20.976;2023-04-24T04:22:39;4.47;;;2.33;;
76123;SDS011;65173;48.066;20.976;2023-04-24T04:25:49;3.70;;;2.42;;
76123;SDS011;65173;48.066;20.976;2023-04-24T04:28:54;4.30;;;2.42;;
76123;SDS011;65173;48.066;20.976;2023-04-24T04:31:56;4.13;;;3.33;;
76123;SDS011;65173;48.066;20.976;2023-04-24T04:35:01;3.20;;;2.58;;
76123;SDS011;65173;48.066;20.976;2023-04-24T04:38:06;4.55;;;3.22;;
76123;SDS011;65173;48.066;20.976;2023-04-24T04:41:20;3.27;;;2.97;;
76123;SDS011;65173;48.066;20.976;2023-04-24T04:44:24;5.10;;;2.95;;
76123;SDS011;65173;48.066;20.976;2023-04-24T04:47:29;3.05;;;2.38;;
76123;SDS011;65173;48.066;20.976;2023-04-24T04:50:35;4.65;;;2.35;;
76123;SDS011;65173;48.066;20.976;2023-04-24T04:53:41;4.15;;;3.00;;
76123;SDS011;65173;48.066;20.976;2023-04-24T04:56:44;2.92;;;2.35;;
76123;SDS011;65173;48.066;20.976;2023-04-24T04:59:47;5.22;;;2.50;;
76123;SDS011;65173;48.066;20.976;2023-04-24T05:03:00;3.30;;;2.97;;
76123;SDS011;65173;48.066;20.976;2023-04-24T05:06:21;2.30;;;2.08;;
76123;SDS011;65173;48.066;20.976;2023-04-24T05:09:26;4.65;;;2.38;;
76123;SDS011;65173;48.066;20.976;2023-04-24T05:12:37;4.70;;;3.87;;
76123;SDS011;65173;48.066;20.976;2023-04-24T05:15:41;3.17;;;2.28;;
76123;SDS011;65173;48.066;20.976;2023-04-24T05:18:44;3.97;;;3.05;;
76123;SDS011;65173;48.066;20.976;2023-04-24T05:21:50;3.47;;;1.92;;
76123;SDS011;65173;48.066;20.976;2023-04-24T05:24:53;3.80;;;2.22;;
76123;SDS011;65173;48.066;20.976;2023-04-24T05:28:08;4.28;;;3.00;;
76123;SDS011;65173;48.066;20.976;2023-04-24T05:31:12;3.00;;;2.72;;
76123;SDS011;65173;48.066;20.976;2023-04-24T05:34:15;3.33;;;2.30;;
76123;SDS011;65173;48.066;20.976;2023-04-24T05:37:20;2.20;;;1.90;;
76123;SDS011;65173;48.066;20.976;2023-04-24T05:40:22;4.45;;;2.15;;
76123;SDS011;65173;48.066;20.976;2023-04-24T05:43:25;3.93;;;2.73;;
76123;SDS011;65173;48.066;20.976;2023-04-24T05:46:27;3.30;;;2.58;;
76123;SDS011;65173;48.066;20.976;2023-04-24T05:49:31;3.55;;;2.97;;
76123;SDS011;65173;48.066;20.976;2023-04-24T05:52:34;6.05;;;3.20;;
76123;SDS011;65173;48.066;20.976;2023-04-24T05:55:40;3.17;;;2.22;;
76123;SDS011;65173;48.066;20.976;2023-04-24T05:58:43;3.88;;;2.80;;
76123;SDS011;65173;48.066;20.976;2023-04-24T06:01:46;5.10;;;3.33;;
76123;SDS011;65173;48.066;20.976;2023-04-24T06:04:53;4.80;;;3.63;;
76123;SDS011;65173;48.066;20.976;2023-04-24T06:07:56;4.05;;;2.33;;
76123;SDS011;65173;48.066;20.976;2023-04-24T06:11:02;2.05;;;1.88;;
76123;SDS011;65173;48.066;20.976;2023-04-24T06:14:06;5.37;;;2.80;;
76123;SDS011;65173;48.066;20.976;2023-04-24T06:17:12;4.60;;;3.40;;
76123;SDS011;65173;48.066;20.976;2023-04-24T06:20:16;4.35;;;3.38;;
76123;SDS011;65173;48.066;20.976;2023-04-24T06:23:19;3.90;;;2.45;;
76123;SDS011;65173;48.066;20.976;2023-04-24T06:26:22;2.88;;;2.38;;
76123;SDS011;65173;48.066;20.976;2023-04-24T06:29:27;3.80;;;3.13;;
76123;SDS011;65173;48.066;20.976;2023-04-24T06:32:30;4.25;;;2.90;;
76123;SDS011;65173;48.066;20.976;2023-04-24T06:35:34;4.90;;;2.63;;
76123;SDS011;65173;48.066;20.976;2023-04-24T06:38:38;3.90;;;2.00;;
76123;SDS011;65173;48.066;20.976;2023-04-24T06:41:40;4.95;;;3.33;;
76123;SDS011;65173;48.066;20.976;2023-04-24T06:44:53;6.43;;;3.93;;
76123;SDS011;65173;48.066;20.976;2023-04-24T06:47:55;3.22;;;2.55;;
76123;SDS011;65173;48.066;20.976;2023-04-24T06:50:59;3.22;;;2.60;;
76123;SDS011;65173;48.066;20.976;2023-04-24T06:54:01;4.32;;;2.65;;
76123;SDS011;65173;48.066;20.976;2023-04-24T06:57:04;3.53;;;2.85;;
76123;SDS011;65173;48.066;20.976;2023-04-24T07:00:07;5.00;;;3.33;;
76123;SDS011;65173;48.066;20.976;2023-04-24T07:03:13;6.60;;;2.90;;
76123;SDS011;65173;48.066;20.976;2023-04-24T07:06:16;5.43;;;3.00;;
76123;SDS011;65173;48.066;20.976;2023-04-24T07:09:21;2.80;;;2.47;;
76123;SDS011;65173;48.066;20.976;2023-04-24T07:12:30;2.13;;;1.88;;
76123;SDS011;65173;48.066;20.976;2023-04-24T07:15:34;3.63;;;2.73;;
76123;SDS011;65173;48.066;20.976;2023-04-24T07:18:37;3.38;;;2.40;;
76123;SDS011;65173;48.066;20.976;2023-04-24T07:21:42;2.55;;;2.15;;
76123;SDS011;65173;48.066;20.976;2023-04-24T07:24:44;2.25;;;1.40;;
76123;SDS011;65173;48.066;20.976;2023-04-24T07:27:47;4.43;;;2.40;;
76123;SDS011;65173;48.066;20.976;2023-04-24T07:30:53;4.20;;;2.03;;
76123;SDS011;65173;48.066;20.976;2023-04-24T07:33:56;4.15;;;2.83;;
76123;SDS011;65173;48.066;20.976;2023-04-24T07:37:01;3.50;;;2.20;;
76123;SDS011;65173;48.066;20.976;2023-04-24T07:40:04;3.42;;;2.38;;
76123;SDS011;65173;48.066;20.976;2023-04-24T07:43:07;5.00;;;2.85;;
76123;SDS011;65173;48.066;20.976;2023-04-24T07:46:10;2.50;;;1.77;;
76123;SDS011;65173;48.066;20.976;2023-04-24T07:49:12;3.03;;;2.55;;
76123;SDS011;65173;48.066;20.976;2023-04-24T07:52:17;2.80;;;2.50;;
76123;SDS011;65173;48.066;20.976;2023-04-24T07:55:20;2.67;;;1.67;;
76123;SDS011;65173;48.066;20.976;2023-04-24T07:58:26;3.13;;;2.47;;
76123;SDS011;65173;48.066;20.976;2023-04-24T08:01:29;3.20;;;2.90;;
76123;SDS011;65173;48.066;20.976;2023-04-24T08:04:32;4.47;;;2.95;;
76123;SDS011;65173;48.066;20.976;2023-04-24T08:07:35;2.97;;;2.43;;
76123;SDS011;65173;48.066;20.976;2023-04-24T08:10:37;4.40;;;2.47;;
76123;SDS011;65173;48.066;20.976;2023-04-24T08:13:40;3.20;;;1.90;;
76123;SDS011;65173;48.066;20.976;2023-04-24T08:16:43;3.53;;;2.03;;
76123;SDS011;65173;48.066;20.976;2023-04-24T08:19:46;1.38;;;1.25;;
76123;SDS011;65173;48.066;20.976;2023-04-24T08:22:54;5.38;;;2.47;;
76123;SDS011;65173;48.066;20.976;2023-04-24T08:25:57;2.38;;;1.75;;
76123;SDS011;65173;48.066;20.976;2023-04-24T08:29:00;3.97;;;2.38;;
76123;SDS011;65173;48.066;20.976;2023-04-24T08:32:02;3.30;;;2.13;;
76123;SDS011;65173;48.066;20.976;2023-04-24T08:35:06;4.47;;;2.70;;
76123;SDS011;65173;48.066;20.976;2023-04-24T08:38:11;2.73;;;2.00;;
76123;SDS011;65173;48.066;20.976;2023-04-24T08:41:14;2.95;;;2.33;;
76123;SDS011;65173;48.066;20.976;2023-04-24T08:44:18;2.63;;;2.08;;
76123;SDS011;65173;48.066;20.976;2023-04-24T08:47:22;3.27;;;2.50;;
76123;SDS011;65173;48.066;20.976;2023-04-24T08:50:27;2.50;;;1.77;;
76123;SDS011;65173;48.066;20.976;2023-04-24T08:53:30;3.15;;;2.72;;
76123;SDS011;65173;48.066;20.976;2023-04-24T08:56:36;2.80;;;2.53;;
76123;SDS011;65173;48.066;20.976;2023-04-24T08:59:41;3.30;;;2.22;;
76123;SDS011;65173;48.066;20.976;2023-04-24T09:02:45;2.15;;;1.95;;
76123;SDS011;65173;48.066;20.976;2023-04-24T09:11:44;3.93;;;2.53;;
76123;SDS011;65173;48.066;20.976;2023-04-24T09:14:47;1.40;;;1.30;;
76123;SDS011;65173;48.066;20.976;2023-04-24T09:17:50;2.20;;;2.00;;
76123;SDS011;65173;48.066;20.976;2023-04-24T09:21:00;2.63;;;2.43;;
76123;SDS011;65173;48.066;20.976;2023-04-24T09:24:05;5.65;;;2.22;;
76123;SDS011;65173;48.066;20.976;2023-04-24T09:27:10;2.63;;;2.03;;
76123;SDS011;65173;48.066;20.976;2023-04-24T09:30:14;4.55;;;2.85;;
76123;SDS011;65173;48.066;20.976;2023-04-24T09:33:24;3.10;;;2.33;;
76123;SDS011;65173;48.066;20.976;2023-04-24T09:36:37;5.68;;;3.15;;
76123;SDS011;65173;48.066;20.976;2023-04-24T09:39:40;3.25;;;2.88;;
76123;SDS011;65173;48.066;20.976;2023-04-24T09:42:46;2.40;;;1.90;;
76123;SDS011;65173;48.066;20.976;2023-04-24T09:45:57;3.53;;;3.20;;
76123;SDS011;65173;48.066;20.976;2023-04-24T09:49:09;3.10;;;2.80;;
76123;SDS011;65173;48.066;20.976;2023-04-24T09:52:16;3.97;;;2.90;;
76123;SDS011;65173;48.066;20.976;2023-04-24T09:55:19;2.65;;;2.15;;
76123;SDS011;65173;48.066;20.976;2023-04-24T09:58:25;2.63;;;1.85;;
76123;SDS011;65173;48.066;20.976;2023-04-24T10:01:31;2.83;;;2.13;;
76123;SDS011;65173;48.066;20.976;2023-04-24T10:04:35;2.25;;;1.35;;
76123;SDS011;65173;48.066;20.976;2023-04-24T10:07:38;4.13;;;2.55;;
76123;SDS011;65173;48.066;20.976;2023-04-24T10:10:41;3.70;;;2.72;;
76123;SDS011;65173;48.066;20.976;2023-04-24T10:13:45;3.13;;;1.97;;
76123;SDS011;65173;48.066;20.976;2023-04-24T10:16:48;3.17;;;2.42;;
76123;SDS011;65173;48.066;20.976;2023-04-24T10:19:52;2.45;;;2.22;;
76123;SDS011;65173;48.066;20.976;2023-04-24T10:22:56;4.67;;;2.90;;
76123;SDS011;65173;48.066;20.976;2023-04-24T10:26:00;3.00;;;2.00;;
76123;SDS011;65173;48.066;20.976;2023-04-24T10:29:03;5.65;;;2.97;;
76123;SDS011;65173;48.066;20.976;2023-04-24T10:32:08;2.60;;;2.30;;
76123;SDS011;65173;48.066;20.976;2023-04-24T10:35:12;2.20;;;2.00;;
76123;SDS011;65173;48.066;20.976;2023-04-24T10:38:16;3.47;;;3.13;;
76123;SDS011;65173;48.066;20.976;2023-04-24T10:41:26;1.25;;;0.85;;
76123;SDS011;65173;48.066;20.976;2023-04-24T10:44:35;7.20;;;3.10;;
76123;SDS011;65173;48.066;20.976;2023-04-24T10:47:41;4.15;;;2.83;;
76123;SDS011;65173;48.066;20.976;2023-04-24T10:53:51;2.87;;;1.70;;
76123;SDS011;65173;48.066;20.976;2023-04-24T11:00:36;10.82;;;4.55;;
76123;SDS011;65173;48.066;20.976;2023-04-24T11:03:40;5.57;;;3.70;;
76123;SDS011;65173;48.066;20.976;2023-04-24T11:06:53;7.05;;;4.47;;
76123;SDS011;65173;48.066;20.976;2023-04-24T11:09:57;5.90;;;3.35;;
76123;SDS011;65173;48.066;20.976;2023-04-24T11:13:01;5.70;;;3.25;;
76123;SDS011;65173;48.066;20.976;2023-04-24T11:16:20;4.40;;;3.30;;
76123;SDS011;65173;48.066;20.976;2023-04-24T11:19:28;5.65;;;3.33;;
76123;SDS011;65173;48.066;20.976;2023-04-24T11:22:34;2.08;;;1.70;;
76123;SDS011;65173;48.066;20.976;2023-04-24T11:25:39;4.33;;;2.70;;
76123;SDS011;65173;48.066;20.976;2023-04-24T11:28:44;4.47;;;2.50;;
76123;SDS011;65173;48.066;20.976;2023-04-24T11:31:48;1.55;;;1.17;;
76123;SDS011;65173;48.066;20.976;2023-04-24T11:38:03;3.92;;;2.38;;
76123;SDS011;65173;48.066;20.976;2023-04-24T11:41:10;3.22;;;1.90;;
76123;SDS011;65173;48.066;20.976;2023-04-24T11:44:14;4.30;;;2.42;;
76123;SDS011;65173;48.066;20.976;2023-04-24T11:47:17;1.97;;;1.00;;
76123;SDS011;65173;48.066;20.976;2023-04-24T11:50:24;3.50;;;2.63;;
76123;SDS011;65173;48.066;20.976;2023-04-24T11:53:33;2.78;;;2.10;;
76123;SDS011;65173;48.066;20.976;2023-04-24T11:56:38;3.30;;;2.27;;
76123;SDS011;65173;48.066;20.976;2023-04-24T11:59:41;2.78;;;2.45;;
76123;SDS011;65173;48.066;20.976;2023-04-24T12:02:44;3.35;;;2.30;;
76123;SDS011;65173;48.066;20.976;2023-04-24T12:05:47;3.97;;;3.08;;
76123;SDS011;65173;48.066;20.976;2023-04-24T12:08:50;3.10;;;2.65;;
76123;SDS011;65173;48.066;20.976;2023-04-24T12:11:54;4.78;;;3.50;;
76123;SDS011;65173;48.066;20.976;2023-04-24T12:14:59;4.32;;;3.28;;
76123;SDS011;65173;48.066;20.976;2023-04-24T12:18:03;5.07;;;3.47;;
76123;SDS011;65173;48.066;20.976;2023-04-24T12:21:15;5.30;;;3.15;;
76123;SDS011;65173;48.066;20.976;2023-04-24T12:24:22;5.05;;;2.53;;
76123;SDS011;65173;48.066;20.976;2023-04-24T12:27:25;7.67;;;3.87;;
76123;SDS011;65173;48.066;20.976;2023-04-24T12:30:28;6.28;;;3.25;;
76123;SDS011;65173;48.066;20.976;2023-04-24T12:33:35;5.13;;;2.97;;
76123;SDS011;65173;48.066;20.976;2023-04-24T12:36:38;4.57;;;2.97;;
76123;SDS011;65173;48.066;20.976;2023-04-24T12:39:46;4.30;;;3.28;;
76123;SDS011;65173;48.066;20.976;2023-04-24T12:43:17;3.70;;;2.58;;
76123;SDS011;65173;48.066;20.976;2023-04-24T12:46:21;4.45;;;3.22;;
76123;SDS011;65173;48.066;20.976;2023-04-24T12:49:24;7.03;;;3.93;;
76123;SDS011;65173;48.066;20.976;2023-04-24T12:52:27;4.97;;;3.25;;
76123;SDS011;65173;48.066;20.976;2023-04-24T12:55:31;2.53;;;2.30;;
76123;SDS011;65173;48.066;20.976;2023-04-24T12:58:34;7.40;;;4.47;;
76123;SDS011;65173;48.066;20.976;2023-04-24T13:01:36;3.83;;;2.95;;
76123;SDS011;65173;48.066;20.976;2023-04-24T13:04:39;4.45;;;2.92;;
76123;SDS011;65173;48.066;20.976;2023-04-24T13:07:41;3.55;;;2.53;;
76123;SDS011;65173;48.066;20.976;2023-04-24T13:10:44;5.45;;;3.60;;
76123;SDS011;65173;48.066;20.976;2023-04-24T13:13:47;4.30;;;3.30;;
76123;SDS011;65173;48.066;20.976;2023-04-24T13:16:50;7.18;;;3.35;;
76123;SDS011;65173;48.066;20.976;2023-04-24T13:19:54;9.67;;;4.10;;
76123;SDS011;65173;48.066;20.976;2023-04-24T13:22:57;4.25;;;3.25;;
76123;SDS011;65173;48.066;20.976;2023-04-24T13:25:59;12.82;;;5.35;;
76123;SDS011;65173;48.066;20.976;2023-04-24T13:29:03;5.73;;;4.70;;
76123;SDS011;65173;48.066;20.976;2023-04-24T13:32:05;4.13;;;3.72;;
76123;SDS011;65173;48.066;20.976;2023-04-24T13:35:08;7.72;;;4.25;;
76123;SDS011;65173;48.066;20.976;2023-04-24T13:38:11;5.70;;;3.67;;
76123;SDS011;65173;48.066;20.976;2023-04-24T13:41:14;5.65;;;4.35;;
76123;SDS011;65173;48.066;20.976;2023-04-24T13:44:17;8.25;;;6.00;;
76123;SDS011;65173;48.066;20.976;2023-04-24T13:47:20;6.70;;;4.47;;
76123;SDS011;65173;48.066;20.976;2023-04-24T13:50:23;6.63;;;4.30;;
76123;SDS011;65173;48.066;20.976;2023-04-24T13:53:26;6.22;;;4.50;;
76123;SDS011;65173;48.066;20.976;2023-04-24T13:56:29;6.85;;;5.13;;
76123;SDS011;65173;48.066;20.976;2023-04-24T13:59:31;2.80;;;2.40;;
76123;SDS011;65173;48.066;20.976;2023-04-24T14:02:34;6.80;;;4.95;;
76123;SDS011;65173;48.066;20.976;2023-04-24T14:05:37;5.65;;;4.15;;
76123;SDS011;65173;48.066;20.976;2023-04-24T14:08:49;5.72;;;4.00;;
76123;SDS011;65173;48.066;20.976;2023-04-24T14:11:52;11.88;;;4.07;;
76123;SDS011;65173;48.066;20.976;2023-04-24T14:14:55;7.07;;;4.63;;
76123;SDS011;65173;48.066;20.976;2023-04-24T14:17:58;7.97;;;4.57;;
76123;SDS011;65173;48.066;20.976;2023-04-24T14:21:01;8.07;;;5.33;;
76123;SDS011;65173;48.066;20.976;2023-04-24T14:24:04;3.90;;;3.20;;
76123;SDS011;65173;48.066;20.976;2023-04-24T14:27:07;5.18;;;3.60;;
76123;SDS011;65173;48.066;20.976;2023-04-24T14:30:10;6.47;;;3.73;;
76123;SDS011;65173;48.066;20.976;2023-04-24T14:33:17;7.85;;;5.30;;
76123;SDS011;65173;48.066;20.976;2023-04-24T14:36:20;8.93;;;4.88;;
76123;SDS011;65173;48.066;20.976;2023-04-24T14:39:23;4.38;;;3.70;;
76123;SDS011;65173;48.066;20.976;2023-04-24T14:42:25;6.25;;;4.57;;
76123;SDS011;65173;48.066;20.976;2023-04-24T14:45:28;7.03;;;4.22;;
76123;SDS011;65173;48.066;20.976;2023-04-24T14:48:31;6.30;;;4.45;;
76123;SDS011;65173;48.066;20.976;2023-04-24T14:51:34;8.20;;;4.60;;
76123;SDS011;65173;48.066;20.976;2023-04-24T14:54:37;8.15;;;5.55;;
76123;SDS011;65173;48.066;20.976;2023-04-24T14:57:39;6.15;;;4.03;;
76123;SDS011;65173;48.066;20.976;2023-04-24T15:00:42;4.93;;;3.83;;
76123;SDS011;65173;48.066;20.976;2023-04-24T15:03:45;7.38;;;4.60;;
76123;SDS011;65173;48.066;20.976;2023-04-24T15:06:48;6.10;;;4.30;;
76123;SDS011;65173;48.066;20.976;2023-04-24T15:09:52;5.85;;;3.33;;
76123;SDS011;65173;48.066;20.976;2023-04-24T15:12:55;9.02;;;3.65;;
76123;SDS011;65173;48.066;20.976;2023-04-24T15:15:57;4.88;;;4.13;;
76123;SDS011;65173;48.066;20.976;2023-04-24T15:19:00;4.72;;;3.67;;
76123;SDS011;65173;48.066;20.976;2023-04-24T15:22:03;5.63;;;3.97;;
76123;SDS011;65173;48.066;20.976;2023-04-24T15:25:06;5.45;;;4.03;;
76123;SDS011;65173;48.066;20.976;2023-04-24T15:28:10;6.85;;;4.72;;
76123;SDS011;65173;48.066;20.976;2023-04-24T15:31:12;8.13;;;4.47;;
76123;SDS011;65173;48.066;20.976;2023-04-24T15:34:15;5.15;;;4.43;;
76123;SDS011;65173;48.066;20.976;2023-04-24T15:37:18;5.78;;;3.75;;
76123;SDS011;65173;48.066;20.976;2023-04-24T15:40:20;8.50;;;5.30;;
76123;SDS011;65173;48.066;20.976;2023-04-24T15:43:23;7.55;;;5.40;;
76123;SDS011;65173;48.066;20.976;2023-04-24T15:46:26;6.32;;;4.05;;
76123;SDS011;65173;48.066;20.976;2023-04-24T15:49:28;6.55;;;4.93;;
76123;SDS011;65173;48.066;20.976;2023-04-24T15:52:34;5.50;;;4.23;;
76123;SDS011;65173;48.066;20.976;2023-04-24T15:55:37;6.45;;;4.03;;
76123;SDS011;65173;48.066;20.976;2023-04-24T15:58:40;5.88;;;3.17;;
76123;SDS011;65173;48.066;20.976;2023-04-24T16:01:42;6.53;;;3.90;;
76123;SDS011;65173;48.066;20.976;2023-04-24T16:04:49;6.00;;;3.80;;
76123;SDS011;65173;48.066;20.976;2023-04-24T16:07:52;9.45;;;5.22;;
76123;SDS011;65173;48.066;20.976;2023-04-24T16:10:55;12.23;;;5.38;;
76123;SDS011;65173;48.066;20.976;2023-04-24T16:13:58;9.15;;;5.13;;
76123;SDS011;65173;48.066;20.976;2023-04-24T16:17:01;8.32;;;4.65;;
76123;SDS011;65173;48.066;20.976;2023-04-24T16:20:07;11.98;;;5.63;;
76123;SDS011;65173;48.066;20.976;2023-04-24T16:23:11;14.90;;;6.37;;
76123;SDS011;65173;48.066;20.976;2023-04-24T16:26:14;9.30;;;6.88;;
76123;SDS011;65173;48.066;20.976;2023-04-24T16:29:17;8.52;;;5.20;;
76123;SDS011;65173;48.066;20.976;2023-04-24T16:32:20;7.00;;;5.43;;
76123;SDS011;65173;48.066;20.976;2023-04-24T16:35:23;11.35;;;6.88;;
76123;SDS011;65173;48.066;20.976;2023-04-24T16:38:26;8.23;;;5.57;;
76123;SDS011;65173;48.066;20.976;2023-04-24T16:41:28;10.82;;;6.40;;
76123;SDS011;65173;48.066;20.976;2023-04-24T16:44:31;10.20;;;7.57;;
76123;SDS011;65173;48.066;20.976;2023-04-24T16:47:35;8.55;;;6.35;;
76123;SDS011;65173;48.066;20.976;2023-04-24T16:50:38;12.40;;;4.63;;
76123;SDS011;65173;48.066;20.976;2023-04-24T16:53:40;8.70;;;5.97;;
76123;SDS011;65173;48.066;20.976;2023-04-24T16:56:43;8.23;;;4.60;;
76123;SDS011;65173;48.066;20.976;2023-04-24T16:59:46;6.65;;;5.30;;
76123;SDS011;65173;48.066;20.976;2023-04-24T17:02:49;9.63;;;6.00;;
76123;SDS011;65173;48.066;20.976;2023-04-24T17:05:52;6.68;;;5.50;;
76123;SDS011;65173;48.066;20.976;2023-04-24T17:08:55;14.85;;;6.38;;
76123;SDS011;65173;48.066;20.976;2023-04-24T17:11:58;14.38;;;7.30;;
76123;SDS011;65173;48.066;20.976;2023-04-24T17:15:03;8.82;;;5.60;;
76123;SDS011;65173;48.066;20.976;2023-04-24T17:18:06;9.82;;;7.10;;
76123;SDS011;65173;48.066;20.976;2023-04-24T17:21:09;8.13;;;5.70;;
76123;SDS011;65173;48.066;20.976;2023-04-24T17:24:12;11.23;;;6.67;;
76123;SDS011;65173;48.066;20.976;2023-04-24T17:27:15;9.27;;;6.00;;
76123;SDS011;65173;48.066;20.976;2023-04-24T17:30:18;8.52;;;5.22;;
76123;SDS011;65173;48.066;20.976;2023-04-24T17:33:22;13.00;;;5.83;;
76123;SDS011;65173;48.066;20.976;2023-04-24T17:36:27;9.98;;;5.50;;
76123;SDS011;65173;48.066;20.976;2023-04-24T17:39:30;10.77;;;6.45;;
76123;SDS011;65173;48.066;20.976;2023-04-24T17:42:33;7.47;;;4.80;;
76123;SDS011;65173;48.066;20.976;2023-04-24T17:45:39;7.80;;;5.38;;
76123;SDS011;65173;48.066;20.976;2023-04-24T17:48:42;9.48;;;5.30;;
76123;SDS011;65173;48.066;20.976;2023-04-24T17:51:45;9.18;;;5.50;;
76123;SDS011;65173;48.066;20.976;2023-04-24T17:54:48;9.33;;;4.80;;
76123;SDS011;65173;48.066;20.976;2023-04-24T17:57:50;9.68;;;5.05;;
76123;SDS011;65173;48.066;20.976;2023-04-24T18:00:53;7.43;;;5.97;;
76123;SDS011;65173;48.066;20.976;2023-04-24T18:03:56;10.27;;;5.17;;
76123;SDS011;65173;48.066;20.976;2023-04-24T18:06:59;9.65;;;5.90;;
76123;SDS011;65173;48.066;20.976;2023-04-24T18:10:02;12.30;;;4.70;;
76123;SDS011;65173;48.066;20.976;2023-04-24T18:13:05;8.82;;;5.65;;
76123;SDS011;65173;48.066;20.976;2023-04-24T18:16:08;7.90;;;5.07;;
76123;SDS011;65173;48.066;20.976;2023-04-24T18:19:12;10.18;;;6.25;;
76123;SDS011;65173;48.066;20.976;2023-04-24T18:22:15;13.93;;;6.43;;
76123;SDS011;65173;48.066;20.976;2023-04-24T18:25:18;8.87;;;5.30;;
76123;SDS011;65173;48.066;20.976;2023-04-24T18:28:28;8.65;;;6.03;;